Strona główna
METAR-TAF:

METAR-TAF

Lotnisko :

Sitiawan, Malezja

Szerokość geograficzna: 04-13N, Długość geograficzna: 100-42E, wysokość: 7 m

Aktualna obserwacja pogody

Raport powstał 54 minut temu, godzina 21:00 UTC
Cisza
Temperatura 26°C
Wilgotność 89%
Ciśnienie 1009 hPa
Widzialność: 8000 m
Mało chmury na wysokości 1700 ft, Cumulonimbus.
Rozproszone chmury na wysokości 3000 ft

METAR: WMBA 102100Z 00000KT 8000 FEW017CB SCT030 26/24 Q1009

czas: 05:54 (21:54 UTC)


TAF: brakujący

Obserwacja i prognoza pogody dla ponad 4000 lotnisk (raport METAR i TAF).

Dostępne stacje oznaczono żółtymi i czerwonymi punktami na mapie.

Najedź kursorem aby zobaczyć nazwę stacji.

Kliknij aby zobaczyć obserwacje i prognozy pogody.

Aby zmienić mapę: kliknij na zielony przycisk z czarnym krzyżykiem, aby powiększyć; na zielony przycisk z myślnikiem, aby pomniejszyć; na zielone strzałki, aby przejść do map sąsiednich.


METAR-TAF: